createdAt,value
2022-11-14T00:01:33.639Z,4.40
2022-11-14T00:04:20.134Z,4.60
2022-11-14T00:07:06.864Z,4.60
2022-11-14T00:09:53.328Z,4.60
2022-11-14T00:12:41.231Z,4.70
2022-11-14T00:15:27.411Z,4.70
2022-11-14T00:18:13.634Z,4.60
2022-11-14T00:20:59.880Z,4.40
2022-11-14T00:23:46.135Z,4.20
2022-11-14T00:26:32.469Z,4.10
2022-11-14T00:29:20.106Z,3.90
2022-11-14T00:32:07.528Z,3.90
2022-11-14T00:34:54.197Z,3.80
2022-11-14T00:37:40.599Z,3.60
2022-11-14T00:40:27.102Z,3.40
2022-11-14T00:43:13.234Z,3.50
2022-11-14T00:46:00.957Z,3.40
2022-11-14T00:48:47.620Z,3.40
2022-11-14T00:51:33.841Z,3.60
2022-11-14T00:54:20.351Z,3.70
2022-11-14T00:57:06.568Z,3.50
2022-11-14T00:59:55.504Z,3.50
2022-11-14T01:02:43.331Z,3.40
2022-11-14T01:05:30.324Z,3.40
2022-11-14T01:08:18.341Z,3.50
2022-11-14T01:11:10.757Z,3.50
2022-11-14T01:13:56.964Z,3.40
2022-11-14T01:16:43.571Z,3.50
2022-11-14T01:19:31.196Z,3.70
2022-11-14T01:22:17.640Z,3.90
2022-11-14T01:25:03.919Z,4.10
2022-11-14T01:27:50.706Z,4.10
2022-11-14T01:30:37.481Z,4.10
2022-11-14T01:33:24.018Z,4.00
2022-11-14T01:36:11.939Z,4.10
2022-11-14T01:38:58.613Z,4.10
2022-11-14T01:41:44.901Z,4.10
2022-11-14T01:44:50.110Z,4.10
2022-11-14T01:47:37.184Z,4.10
2022-11-14T01:50:24.674Z,4.10
2022-11-14T01:53:12.318Z,4.10
2022-11-14T01:56:02.261Z,4.10
2022-11-14T01:58:53.083Z,4.00
2022-11-14T02:01:44.169Z,4.00
2022-11-14T02:04:33.788Z,4.00
2022-11-14T02:07:20.431Z,4.10
2022-11-14T02:10:11.727Z,4.10
2022-11-14T02:12:57.955Z,4.10
2022-11-14T02:15:44.296Z,4.00
2022-11-14T02:18:30.782Z,4.10
2022-11-14T02:21:18.600Z,4.10
2022-11-14T02:24:09.818Z,4.00
2022-11-14T02:26:56.083Z,4.00
2022-11-14T02:29:42.778Z,4.00
2022-11-14T02:32:35.921Z,4.00
2022-11-14T02:35:31.657Z,4.10
2022-11-14T02:38:19.186Z,4.10
2022-11-14T02:41:05.784Z,4.10
2022-11-14T02:43:52.098Z,4.10
2022-11-14T02:46:38.422Z,4.10
2022-11-14T02:49:24.612Z,4.20
2022-11-14T02:52:11.114Z,4.10
2022-11-14T02:54:58.445Z,4.10
2022-11-14T02:57:44.875Z,4.10
2022-11-14T03:00:31.308Z,4.20
2022-11-14T03:03:17.707Z,4.30
2022-11-14T03:06:05.666Z,4.30
2022-11-14T03:08:52.303Z,4.20
2022-11-14T03:11:40.141Z,4.20
2022-11-14T03:14:26.431Z,4.20
2022-11-14T03:17:12.988Z,4.20
2022-11-14T03:19:59.182Z,4.20
2022-11-14T03:22:45.451Z,4.30
2022-11-14T03:25:31.818Z,4.30
2022-11-14T03:28:19.314Z,4.30
2022-11-14T03:31:06.492Z,4.30
2022-11-14T03:33:53.050Z,4.40
2022-11-14T03:36:39.569Z,4.30
2022-11-14T03:39:26.045Z,4.40
2022-11-14T03:42:12.640Z,4.40
2022-11-14T03:45:00.096Z,4.30
2022-11-14T03:47:46.505Z,4.30
2022-11-14T03:50:32.877Z,4.40
2022-11-14T03:53:19.462Z,4.40
2022-11-14T03:56:06.545Z,4.50
2022-11-14T03:58:53.108Z,4.40
2022-11-14T04:01:40.862Z,4.40
2022-11-14T04:04:27.116Z,4.40
2022-11-14T04:07:13.458Z,4.40
2022-11-14T04:09:59.629Z,4.40
2022-11-14T04:12:49.710Z,4.40
2022-11-14T04:15:36.267Z,4.50
2022-11-14T04:18:24.688Z,4.50
2022-11-14T04:21:11.144Z,4.40
2022-11-14T04:23:57.404Z,4.30
2022-11-14T04:26:43.672Z,4.50
2022-11-14T04:29:29.866Z,4.50
2022-11-14T04:32:16.387Z,4.50
2022-11-14T04:35:04.150Z,4.60
2022-11-14T04:37:50.469Z,4.70
2022-11-14T04:40:36.698Z,4.80
2022-11-14T04:43:23.073Z,4.80
2022-11-14T04:46:09.323Z,4.90
2022-11-14T04:48:55.584Z,5.00
2022-11-14T04:51:43.122Z,5.00
2022-11-14T04:54:29.509Z,5.00
2022-11-14T04:57:16.499Z,5.00
2022-11-14T05:00:03.165Z,5.00
2022-11-14T05:02:49.638Z,5.10
2022-11-14T05:05:40.696Z,5.10
2022-11-14T05:08:30.197Z,5.00
2022-11-14T05:11:17.600Z,5.00
2022-11-14T05:14:04.185Z,5.00
2022-11-14T05:16:50.339Z,4.80
2022-11-14T05:19:36.636Z,4.80
2022-11-14T05:22:23.068Z,4.90
2022-11-14T05:25:11.574Z,4.80
2022-11-14T05:27:58.027Z,4.90
2022-11-14T05:30:44.227Z,4.80
2022-11-14T05:33:30.795Z,4.80
2022-11-14T05:36:18.120Z,4.80
2022-11-14T05:39:04.706Z,4.80
2022-11-14T05:41:52.180Z,4.70
2022-11-14T05:44:38.792Z,4.70
2022-11-14T05:47:25.237Z,4.70
2022-11-14T05:50:11.857Z,4.70
2022-11-14T05:52:58.347Z,4.70
2022-11-14T05:55:45.142Z,4.70
2022-11-14T05:58:34.049Z,4.60
2022-11-14T06:01:21.380Z,4.50
2022-11-14T06:04:08.069Z,4.50
2022-11-14T06:06:54.667Z,4.60
2022-11-14T06:09:41.107Z,4.60
2022-11-14T06:12:27.612Z,4.60
2022-11-14T06:15:15.327Z,4.60
2022-11-14T06:18:01.552Z,4.60
2022-11-14T06:20:47.892Z,4.60
2022-11-14T06:23:34.174Z,4.60
2022-11-14T06:26:23.762Z,4.70
2022-11-14T06:29:11.303Z,4.70
2022-11-14T06:31:59.123Z,4.60
2022-11-14T06:34:45.229Z,4.60
2022-11-14T06:37:33.667Z,4.80
2022-11-14T06:40:20.465Z,4.60
2022-11-14T06:43:06.706Z,4.50
2022-11-14T06:45:54.829Z,4.50
2022-11-14T06:48:43.400Z,4.50
2022-11-14T06:51:29.819Z,4.60
2022-11-14T06:54:16.138Z,4.60
2022-11-14T06:57:02.851Z,4.50
2022-11-14T06:59:49.275Z,4.50
2022-11-14T07:02:35.768Z,4.60
2022-11-14T07:05:23.344Z,4.70
2022-11-14T07:08:10.083Z,4.60
2022-11-14T07:11:02.551Z,4.70
2022-11-14T07:13:49.131Z,4.70
2022-11-14T07:16:36.521Z,4.80
2022-11-14T07:19:23.102Z,4.80
2022-11-14T07:22:10.714Z,4.70
2022-11-14T07:24:57.013Z,4.60
2022-11-14T07:27:43.443Z,4.70
2022-11-14T07:30:29.938Z,4.70
2022-11-14T07:33:16.045Z,4.80
2022-11-14T07:36:02.591Z,4.90
2022-11-14T07:38:50.358Z,5.00
2022-11-14T07:41:36.883Z,4.80
2022-11-14T07:44:23.232Z,4.90
2022-11-14T07:47:09.496Z,4.90
2022-11-14T07:49:55.679Z,5.00
2022-11-14T07:52:42.325Z,5.00
2022-11-14T07:55:30.156Z,5.20
2022-11-14T07:58:16.705Z,5.30
2022-11-14T08:01:04.099Z,5.30
2022-11-14T08:03:50.399Z,5.40
2022-11-14T08:06:36.619Z,5.60
2022-11-14T08:09:23.531Z,5.50
2022-11-14T08:12:11.031Z,5.50
2022-11-14T08:14:57.598Z,5.60
2022-11-14T08:17:43.831Z,5.80
2022-11-14T08:20:30.139Z,5.80
2022-11-14T08:23:16.649Z,5.90
2022-11-14T08:26:03.004Z,6.00
2022-11-14T08:28:53.762Z,6.10
2022-11-14T08:31:40.187Z,6.10
2022-11-14T08:34:26.625Z,6.00
2022-11-14T08:37:12.948Z,6.00
2022-11-14T08:39:59.088Z,6.10
2022-11-14T08:42:45.627Z,6.20
2022-11-14T08:45:33.168Z,6.20
2022-11-14T08:48:19.665Z,6.30
2022-11-14T08:51:07.587Z,6.30
2022-11-14T08:53:54.102Z,6.30
2022-11-14T08:56:40.339Z,6.50
2022-11-14T08:59:26.785Z,6.50
2022-11-14T09:02:15.109Z,6.70
2022-11-14T09:05:01.723Z,6.90
2022-11-14T09:07:48.100Z,7.10
2022-11-14T09:10:35.185Z,7.10
2022-11-14T09:13:22.241Z,7.40
2022-11-14T09:16:09.359Z,7.50
2022-11-14T09:18:57.211Z,7.60
2022-11-14T09:21:44.092Z,7.60
2022-11-14T09:24:30.720Z,7.70
2022-11-14T09:27:17.193Z,7.80
2022-11-14T09:30:04.616Z,7.70
2022-11-14T09:32:51.278Z,7.80
2022-11-14T09:35:39.072Z,8.00
2022-11-14T09:38:25.435Z,8.00
2022-11-14T09:41:25.426Z,8.30
2022-11-14T09:44:47.491Z,8.20
2022-11-14T09:47:40.111Z,8.30
2022-11-14T09:50:31.401Z,8.20
2022-11-14T09:53:26.634Z,8.20
2022-11-14T09:56:14.411Z,8.40
2022-11-14T09:59:00.659Z,8.50
2022-11-14T10:01:56.618Z,8.40
2022-11-14T10:04:57.515Z,8.40
2022-11-14T10:08:07.310Z,8.40
2022-11-14T10:10:56.875Z,8.50
2022-11-14T10:13:56.820Z,8.80
2022-11-14T10:16:52.823Z,8.70
2022-11-14T10:19:47.884Z,8.70
2022-11-14T10:22:50.845Z,8.70
2022-11-14T10:25:48.799Z,8.80
2022-11-14T10:28:47.743Z,8.70
2022-11-14T10:31:45.075Z,8.70
2022-11-14T10:34:35.479Z,8.80
2022-11-14T10:37:27.919Z,8.80
2022-11-14T10:40:20.776Z,8.40
2022-11-14T10:43:24.465Z,8.40
2022-11-14T10:46:15.648Z,8.20
2022-11-14T10:49:02.411Z,8.20
2022-11-14T10:51:53.682Z,8.20
2022-11-14T10:54:45.114Z,8.30
2022-11-14T10:57:31.639Z,8.40
2022-11-14T11:00:20.594Z,8.60
2022-11-14T11:03:08.672Z,8.60
2022-11-14T11:05:57.529Z,8.60
2022-11-14T11:09:06.730Z,8.70
2022-11-14T11:11:56.465Z,8.70
2022-11-14T11:14:43.445Z,8.60
2022-11-14T11:17:37.106Z,8.60
2022-11-14T11:20:32.178Z,8.60
2022-11-14T11:23:22.814Z,8.60
2022-11-14T11:26:18.476Z,8.70
2022-11-14T11:29:08.836Z,8.70
2022-11-14T11:31:57.935Z,8.60
2022-11-14T11:34:44.683Z,8.70
2022-11-14T11:37:39.905Z,8.80
2022-11-14T11:40:28.711Z,8.80
2022-11-14T11:46:31.234Z,8.80
2022-11-14T11:49:24.714Z,8.90
2022-11-14T11:52:14.860Z,9.00
2022-11-14T11:55:14.184Z,8.90
2022-11-14T11:58:06.275Z,9.10
2022-11-14T12:00:55.115Z,9.00
2022-11-14T12:03:43.778Z,9.10
2022-11-14T12:06:36.257Z,9.20
2022-11-14T12:09:42.579Z,9.20
2022-11-14T12:12:50.925Z,9.30
2022-11-14T12:15:48.688Z,9.40
2022-11-14T12:18:53.570Z,9.40
2022-11-14T12:21:58.907Z,9.50
2022-11-14T12:25:15.154Z,9.60
2022-11-14T12:28:18.367Z,9.60
2022-11-14T12:31:07.032Z,9.80
2022-11-14T12:34:00.037Z,9.90
2022-11-14T12:36:47.013Z,10.00
2022-11-14T12:39:33.848Z,10.10
2022-11-14T12:42:22.483Z,10.10
2022-11-14T12:45:44.735Z,10.10
2022-11-14T12:48:35.166Z,10.30
2022-11-14T12:51:49.651Z,10.40
2022-11-14T12:54:46.955Z,10.40
2022-11-14T12:57:49.511Z,10.40
2022-11-14T13:00:38.590Z,10.50
2022-11-14T13:03:47.145Z,10.50
2022-11-14T13:06:44.974Z,10.60
2022-11-14T13:09:40.742Z,10.70
2022-11-14T13:12:50.202Z,10.80
2022-11-14T13:16:09.369Z,10.80
2022-11-14T13:19:34.618Z,10.80
2022-11-14T13:22:39.744Z,11.00
2022-11-14T13:25:26.494Z,11.10
2022-11-14T13:28:48.738Z,11.10
2022-11-14T13:31:48.036Z,11.20
2022-11-14T13:34:42.588Z,11.20
2022-11-14T13:37:49.572Z,11.20
2022-11-14T13:40:42.753Z,11.30
2022-11-14T13:43:43.624Z,11.20
2022-11-14T13:46:45.386Z,11.30
2022-11-14T13:49:46.687Z,11.20
2022-11-14T13:52:35.028Z,11.40
2022-11-14T13:55:23.237Z,11.40
2022-11-14T13:58:23.656Z,11.30
2022-11-14T14:01:22.743Z,11.30
2022-11-14T14:04:21.679Z,11.30
2022-11-14T14:07:19.366Z,11.30
2022-11-14T14:10:16.773Z,11.30
2022-11-14T14:13:17.323Z,11.20
2022-11-14T14:16:10.321Z,11.20
2022-11-14T14:19:05.573Z,11.20
2022-11-14T14:21:58.141Z,11.20
2022-11-14T14:24:56.400Z,11.20
2022-11-14T14:27:53.888Z,11.20
2022-11-14T14:30:40.404Z,11.10
2022-11-14T14:33:26.843Z,11.00
2022-11-14T14:36:22.201Z,11.00
2022-11-14T14:39:18.182Z,11.00
2022-11-14T14:42:12.082Z,10.90
2022-11-14T14:44:59.585Z,11.00
2022-11-14T14:47:49.211Z,11.00
2022-11-14T14:50:40.687Z,11.00
2022-11-14T14:53:28.617Z,11.10
2022-11-14T14:56:20.454Z,11.10
2022-11-14T14:59:19.144Z,11.00
2022-11-14T15:02:10.412Z,11.10
2022-11-14T15:04:59.792Z,10.90
2022-11-14T15:07:46.363Z,11.00
2022-11-14T15:10:33.304Z,10.80
2022-11-14T15:13:20.670Z,10.70
2022-11-14T15:16:10.093Z,10.70
2022-11-14T15:18:58.195Z,10.70
2022-11-14T15:21:44.584Z,10.70
2022-11-14T15:24:31.629Z,10.60
2022-11-14T15:27:19.374Z,10.60
2022-11-14T15:30:08.522Z,10.50
2022-11-14T15:32:58.277Z,10.40
2022-11-14T15:35:44.788Z,10.30
2022-11-14T15:38:43.910Z,10.20
2022-11-14T15:41:32.123Z,10.10
2022-11-14T15:44:31.867Z,10.10
2022-11-14T15:47:24.413Z,10.00
2022-11-14T15:50:31.528Z,9.90
2022-11-14T15:53:23.466Z,9.80
2022-11-14T15:56:12.299Z,9.80
2022-11-14T15:58:58.604Z,9.80
2022-11-14T16:01:46.832Z,9.80
2022-11-14T16:04:36.602Z,9.70
2022-11-14T16:07:24.315Z,9.70
2022-11-14T16:10:16.064Z,9.70
2022-11-14T16:13:02.716Z,9.50
2022-11-14T16:15:49.139Z,9.50
2022-11-14T16:18:35.332Z,9.50
2022-11-14T16:21:21.755Z,9.40
2022-11-14T16:24:15.722Z,9.40
2022-11-14T16:27:02.478Z,9.30
2022-11-14T16:29:49.082Z,9.30
2022-11-14T16:32:35.339Z,9.20
2022-11-14T16:35:23.297Z,9.20
2022-11-14T16:38:13.238Z,9.10
2022-11-14T16:41:01.106Z,9.10
2022-11-14T16:43:47.319Z,8.90
2022-11-14T16:46:33.800Z,8.90
2022-11-14T16:49:20.512Z,8.90
2022-11-14T16:52:08.509Z,8.80
2022-11-14T16:54:55.165Z,8.80
2022-11-14T16:57:43.035Z,8.70
2022-11-14T17:00:29.416Z,8.70
2022-11-14T17:03:15.639Z,8.60
2022-11-14T17:06:02.192Z,8.50
2022-11-14T17:08:48.734Z,8.50
2022-11-14T17:11:35.162Z,8.50
2022-11-14T17:14:22.787Z,8.50
2022-11-14T17:17:09.118Z,8.50
2022-11-14T17:19:55.419Z,8.40
2022-11-14T17:22:42.119Z,8.30
2022-11-14T17:25:28.280Z,8.30
2022-11-14T17:28:14.692Z,8.20
2022-11-14T17:31:07.428Z,8.20
2022-11-14T17:33:55.117Z,8.20
2022-11-14T17:36:41.574Z,8.30
2022-11-14T17:39:28.095Z,8.30
2022-11-14T17:42:14.444Z,8.40
2022-11-14T17:45:00.938Z,8.50
2022-11-14T17:47:48.603Z,8.60
2022-11-14T17:50:38.804Z,8.60
2022-11-14T17:53:25.451Z,8.70
2022-11-14T17:56:15.017Z,8.80
2022-11-14T17:59:01.246Z,8.90
2022-11-14T18:01:48.257Z,9.00
2022-11-14T18:04:35.991Z,9.10
2022-11-14T18:07:22.492Z,9.20
2022-11-14T18:10:09.631Z,9.10
2022-11-14T18:12:56.128Z,9.10
2022-11-14T18:15:42.214Z,9.10
2022-11-14T18:18:30.755Z,9.10
2022-11-14T18:21:20.940Z,9.10
2022-11-14T18:24:12.916Z,9.20
2022-11-14T18:26:59.945Z,9.20
2022-11-14T18:29:46.418Z,9.20
2022-11-14T18:32:32.883Z,9.10
2022-11-14T18:35:19.439Z,9.10
2022-11-14T18:38:07.070Z,8.90
2022-11-14T18:40:57.535Z,8.90
2022-11-14T18:43:45.288Z,8.90
2022-11-14T18:46:36.039Z,8.90
2022-11-14T18:49:23.851Z,8.90
2022-11-14T18:52:15.841Z,8.80
2022-11-14T18:55:05.351Z,8.80
2022-11-14T18:57:51.849Z,8.70
2022-11-14T19:00:38.316Z,8.70
2022-11-14T19:03:25.010Z,8.70
2022-11-14T19:06:12.763Z,8.60
2022-11-14T19:08:59.896Z,8.70
2022-11-14T19:12:04.819Z,8.70
2022-11-14T19:14:52.835Z,8.80
2022-11-14T19:17:39.248Z,8.80
2022-11-14T19:20:25.523Z,8.80
2022-11-14T19:23:13.084Z,8.70
2022-11-14T19:26:00.736Z,8.70
2022-11-14T19:28:49.480Z,8.80
2022-11-14T19:31:36.132Z,8.80
2022-11-14T19:34:22.556Z,8.90
2022-11-14T19:37:09.000Z,8.90
2022-11-14T19:39:55.442Z,8.80
2022-11-14T19:42:42.150Z,8.90
2022-11-14T19:45:29.712Z,8.80
2022-11-14T19:48:16.254Z,8.80
2022-11-14T19:51:03.889Z,8.70
2022-11-14T19:53:50.719Z,8.70
2022-11-14T19:56:37.889Z,8.60
2022-11-14T19:59:27.824Z,8.60
2022-11-14T20:02:15.876Z,8.50
2022-11-14T20:05:02.364Z,8.30
2022-11-14T20:07:48.711Z,8.20
2022-11-14T20:10:47.501Z,8.20
2022-11-14T20:13:35.100Z,8.10
2022-11-14T20:16:23.233Z,8.00
2022-11-14T20:19:10.908Z,8.00
2022-11-14T20:21:57.377Z,7.90
2022-11-14T20:24:43.753Z,7.90
2022-11-14T20:27:30.372Z,7.90
2022-11-14T20:30:16.908Z,7.80
2022-11-14T20:33:03.484Z,7.80
2022-11-14T20:35:50.967Z,7.70
2022-11-14T20:38:37.333Z,7.70
2022-11-14T20:41:23.798Z,7.60
2022-11-14T20:44:10.545Z,7.60
2022-11-14T20:46:57.237Z,7.60
2022-11-14T20:49:44.244Z,7.50
2022-11-14T20:52:31.863Z,7.40
2022-11-14T20:55:18.323Z,7.40
2022-11-14T20:58:04.804Z,7.40
2022-11-14T21:00:51.520Z,7.40
2022-11-14T21:03:38.750Z,7.40
2022-11-14T21:06:25.241Z,7.40
2022-11-14T21:09:12.978Z,7.40
2022-11-14T21:11:59.352Z,7.30
2022-11-14T21:14:45.652Z,7.20
2022-11-14T21:17:32.384Z,7.30
2022-11-14T21:20:19.007Z,7.30
2022-11-14T21:23:05.367Z,7.40
2022-11-14T21:25:52.858Z,7.40
2022-11-14T21:28:41.193Z,7.40
2022-11-14T21:31:31.464Z,7.30
2022-11-14T21:34:18.516Z,7.30
2022-11-14T21:37:04.989Z,7.20
2022-11-14T21:39:51.336Z,7.20
2022-11-14T21:42:39.779Z,7.30
2022-11-14T21:45:26.476Z,7.20
2022-11-14T21:48:12.640Z,7.30
2022-11-14T21:51:07.046Z,7.20
2022-11-14T21:53:58.151Z,7.20
2022-11-14T21:56:44.526Z,7.20
2022-11-14T21:59:32.204Z,7.20
2022-11-14T22:02:36.032Z,7.20
2022-11-14T22:05:22.530Z,7.20
2022-11-14T22:08:09.188Z,7.10
2022-11-14T22:11:01.575Z,7.10
2022-11-14T22:13:47.744Z,7.10
2022-11-14T22:16:35.412Z,7.00
2022-11-14T22:19:21.701Z,7.00
2022-11-14T22:22:07.906Z,6.90
2022-11-14T22:24:54.543Z,7.00
2022-11-14T22:27:40.966Z,6.90
2022-11-14T22:30:27.344Z,6.90
2022-11-14T22:33:15.019Z,6.90
2022-11-14T22:36:10.196Z,6.90
2022-11-14T22:38:57.628Z,6.80
2022-11-14T22:41:44.165Z,6.80
2022-11-14T22:44:30.399Z,6.90
2022-11-14T22:47:16.643Z,6.80
2022-11-14T22:50:05.110Z,6.90
2022-11-14T22:52:51.382Z,6.90
2022-11-14T22:55:37.477Z,7.00
2022-11-14T22:58:24.713Z,7.00
2022-11-14T23:01:12.432Z,7.00
2022-11-14T23:04:01.033Z,7.00
2022-11-14T23:06:48.764Z,7.00
2022-11-14T23:09:35.348Z,7.00
2022-11-14T23:12:21.559Z,7.00
2022-11-14T23:15:08.683Z,7.00
2022-11-14T23:17:55.151Z,7.00
2022-11-14T23:20:41.546Z,7.10
2022-11-14T23:23:29.539Z,7.10
2022-11-14T23:26:18.148Z,7.20
2022-11-14T23:29:05.626Z,7.20
2022-11-14T23:31:51.904Z,7.30
2022-11-14T23:34:38.106Z,7.30
2022-11-14T23:37:24.527Z,7.40
2022-11-14T23:40:12.775Z,7.40
2022-11-14T23:42:59.281Z,7.40
2022-11-14T23:45:45.582Z,7.40
2022-11-14T23:48:32.020Z,7.40
2022-11-14T23:51:18.444Z,7.50
2022-11-14T23:54:05.040Z,7.60
2022-11-14T23:56:52.642Z,7.70
2022-11-14T23:59:39.037Z,7.70
